Time;durP1;ratioP1;P1;durP2;ratioP2;P2;SDS_P1;SDS_P2;PMS_P1;PMS_P2;Temp;Humidity;BMP_temperature;BMP_pressure;BME280_temperature;BME280_humidity;BME280_pressure;Samples;Min_cycle;Max_cycle;Signal;HPM_P1;HPM_P2
2023/10/19 00:00:20;;;;;;;2.40;2.00;;;;;;;;;;5066436;28;20816;-91
2023/10/19 00:02:48;;;;;;;3.27;2.57;;;;;;;;;;5072871;28;20439;-91
2023/10/19 00:05:16;;;;;;;2.87;2.50;;;;;;;;;;5073296;28;20915;-92
2023/10/19 00:07:44;;;;;;;3.30;2.10;;;;;;;;;;5079956;28;20461;-91
2023/10/19 00:10:14;;;;;;;3.03;2.20;;;;;;;;;;5075232;28;20581;-92
2023/10/19 00:12:43;;;;;;;5.10;2.07;;;;;;;;;;5071792;28;20455;-92
2023/10/19 00:15:11;;;;;;;4.67;2.73;;;;;;;;;;5071347;28;20483;-92
2023/10/19 00:17:44;;;;;;;4.77;2.57;;;;;;;;;;5074781;28;20448;-92
2023/10/19 00:20:50;;;;;;;4.03;2.63;;;;;;;;;;5074958;28;20471;-91
2023/10/19 00:23:24;;;;;;;3.40;2.00;;;;;;;;;;5072269;28;20904;-91
2023/10/19 00:25:50;;;;;;;2.97;2.10;;;;;;;;;;5073723;28;20611;-92
2023/10/19 00:28:18;;;;;;;4.83;1.93;;;;;;;;;;5072796;28;20487;-91
2023/10/19 00:30:46;;;;;;;2.40;1.60;;;;;;;;;;5073252;28;21232;-91
2023/10/19 00:33:18;;;;;;;4.67;2.33;;;;;;;;;;5072885;28;20436;-92
2023/10/19 00:35:50;;;;;;;3.03;2.13;;;;;;;;;;5072580;28;20448;-91
2023/10/19 00:38:27;;;;;;;3.40;1.90;;;;;;;;;;5073887;28;20522;-91
2023/10/19 00:40:58;;;;;;;3.80;2.30;;;;;;;;;;5068165;28;20496;-91
2023/10/19 00:43:32;;;;;;;3.27;2.10;;;;;;;;;;5075488;28;20508;-91
2023/10/19 00:46:01;;;;;;;4.50;2.93;;;;;;;;;;5083427;28;20429;-91
2023/10/19 00:48:32;;;;;;;4.20;2.50;;;;;;;;;;5104430;22;20789;-55
2023/10/19 00:51:09;;;;;;;3.00;2.30;;;;;;;;;;5086519;28;20452;-55
2023/10/19 00:53:37;;;;;;;3.57;2.13;;;;;;;;;;5087247;28;20451;-55
2023/10/19 00:56:06;;;;;;;3.60;1.30;;;;;;;;;;5086816;28;20447;-55
2023/10/19 00:58:35;;;;;;;1.60;1.23;;;;;;;;;;5087443;28;21061;-54
2023/10/19 01:01:05;;;;;;;2.37;1.83;;;;;;;;;;5087496;28;20465;-58
2023/10/19 01:03:37;;;;;;;4.30;2.70;;;;;;;;;;5090105;28;20538;-59
2023/10/19 01:06:09;;;;;;;2.50;2.00;;;;;;;;;;5087874;28;20444;-57
2023/10/19 01:08:42;;;;;;;3.00;1.70;;;;;;;;;;5088331;28;20869;-58
2023/10/19 01:11:11;;;;;;;2.10;1.10;;;;;;;;;;5092246;28;20809;-53
2023/10/19 01:13:38;;;;;;;2.37;1.57;;;;;;;;;;5091149;28;20447;-54
2023/10/19 01:16:06;;;;;;;4.30;2.97;;;;;;;;;;5091188;28;20449;-55
2023/10/19 01:18:35;;;;;;;6.00;3.63;;;;;;;;;;5091457;28;20882;-55
2023/10/19 01:21:06;;;;;;;2.80;2.43;;;;;;;;;;5084043;28;20452;-56
2023/10/19 01:23:36;;;;;;;4.10;3.00;;;;;;;;;;5090575;28;20458;-54
2023/10/19 01:26:08;;;;;;;2.80;2.13;;;;;;;;;;5091278;28;20451;-58
2023/10/19 01:28:48;;;;;;;4.30;2.60;;;;;;;;;;5088992;28;20489;-55
2023/10/19 01:31:22;;;;;;;2.70;1.80;;;;;;;;;;5093567;28;20516;-56
2023/10/19 01:33:50;;;;;;;3.83;2.53;;;;;;;;;;5089862;28;20454;-55
2023/10/19 01:36:25;;;;;;;3.33;2.50;;;;;;;;;;5095081;28;20493;-54
2023/10/19 01:38:54;;;;;;;2.43;1.60;;;;;;;;;;5096562;28;20459;-54
2023/10/19 01:41:21;;;;;;;3.50;2.30;;;;;;;;;;5090846;28;20443;-56
2023/10/19 01:43:48;;;;;;;3.30;2.57;;;;;;;;;;5088090;28;20439;-54
2023/10/19 01:46:21;;;;;;;3.37;2.43;;;;;;;;;;5090223;28;20433;-54
2023/10/19 01:48:53;;;;;;;2.47;1.40;;;;;;;;;;5092281;28;20885;-55
2023/10/19 01:51:20;;;;;;;2.60;2.40;;;;;;;;;;5089645;28;20546;-56
2023/10/19 01:53:48;;;;;;;2.83;2.53;;;;;;;;;;5087863;28;20472;-60
2023/10/19 01:56:17;;;;;;;3.87;2.23;;;;;;;;;;5090878;28;20509;-55
2023/10/19 01:58:46;;;;;;;2.10;1.30;;;;;;;;;;5087244;28;20522;-56
2023/10/19 02:01:19;;;;;;;3.60;2.30;;;;;;;;;;5088470;28;20443;-54
2023/10/19 02:03:48;;;;;;;4.57;2.80;;;;;;;;;;5092716;28;20455;-54
2023/10/19 02:06:17;;;;;;;3.00;2.80;;;;;;;;;;5094860;28;20945;-55
2023/10/19 02:08:47;;;;;;;2.83;2.13;;;;;;;;;;5089386;28;20966;-55
2023/10/19 02:11:17;;;;;;;3.70;2.30;;;;;;;;;;5090346;28;20443;-56
2023/10/19 02:13:47;;;;;;;3.20;1.70;;;;;;;;;;5086689;28;20813;-55
2023/10/19 02:16:16;;;;;;;3.27;1.73;;;;;;;;;;5089559;28;21072;-53
2023/10/19 02:18:43;;;;;;;2.33;1.50;;;;;;;;;;5090662;28;20483;-54
2023/10/19 02:21:13;;;;;;;3.90;1.00;;;;;;;;;;5088243;28;20443;-54
2023/10/19 02:23:41;;;;;;;3.23;2.30;;;;;;;;;;5084748;28;20475;-55
2023/10/19 02:26:09;;;;;;;2.77;2.43;;;;;;;;;;5084410;28;20448;-55
2023/10/19 02:28:38;;;;;;;2.77;2.00;;;;;;;;;;5091904;28;20483;-54
2023/10/19 02:31:18;;;;;;;3.10;1.70;;;;;;;;;;5085262;28;20958;-54
2023/10/19 02:33:45;;;;;;;2.27;1.47;;;;;;;;;;5094368;28;21067;-55
2023/10/19 02:36:19;;;;;;;3.10;2.20;;;;;;;;;;5093355;28;20444;-54
2023/10/19 02:38:48;;;;;;;77.57;48.33;;;;;;;;;;5087735;28;20993;-54
2023/10/19 02:41:17;;;;;;;23.60;15.53;;;;;;;;;;5091647;28;20764;-56
2023/10/19 02:43:46;;;;;;;4.10;2.50;;;;;;;;;;5089194;28;20439;-55
2023/10/19 02:46:17;;;;;;;6.23;2.20;;;;;;;;;;5087633;28;20787;-58
2023/10/19 02:48:44;;;;;;;4.50;2.70;;;;;;;;;;5087526;28;20479;-60
2023/10/19 02:51:12;;;;;;;2.67;1.87;;;;;;;;;;5088586;28;20440;-58
2023/10/19 02:53:39;;;;;;;9.83;1.90;;;;;;;;;;5079117;28;20518;-55
2023/10/19 02:56:13;;;;;;;3.07;1.90;;;;;;;;;;5091474;28;20562;-53
2023/10/19 02:58:42;;;;;;;3.90;1.33;;;;;;;;;;5088700;28;20504;-58
2023/10/19 03:01:21;;;;;;;2.27;1.40;;;;;;;;;;5087540;28;20933;-57
2023/10/19 03:03:49;;;;;;;2.37;1.53;;;;;;;;;;5086298;28;20450;-54
2023/10/19 03:06:17;;;;;;;2.17;1.83;;;;;;;;;;5089322;28;20451;-54
2023/10/19 03:08:46;;;;;;;2.50;1.90;;;;;;;;;;5084954;28;21019;-57
2023/10/19 03:11:13;;;;;;;2.33;1.43;;;;;;;;;;5087181;28;20450;-58
2023/10/19 03:13:40;;;;;;;2.30;1.30;;;;;;;;;;5086759;28;20443;-55
2023/10/19 03:16:09;;;;;;;2.90;1.47;;;;;;;;;;5088440;28;20956;-55
2023/10/19 03:18:36;;;;;;;2.40;1.30;;;;;;;;;;5083505;28;20478;-56
2023/10/19 03:21:05;;;;;;;2.70;1.77;;;;;;;;;;5083870;28;20966;-54
2023/10/19 03:23:34;;;;;;;3.20;1.77;;;;;;;;;;5083566;28;20531;-55
2023/10/19 03:28:54;;;;;;;2.30;1.50;;;;;;;;;;5088938;28;20607;-55
2023/10/19 03:31:22;;;;;;;3.17;1.70;;;;;;;;;;5087187;28;20448;-54
2023/10/19 03:33:54;;;;;;;2.10;1.67;;;;;;;;;;5086657;28;20462;-54
2023/10/19 03:36:21;;;;;;;2.60;2.00;;;;;;;;;;5090760;28;20447;-55
2023/10/19 03:38:49;;;;;;;2.53;1.60;;;;;;;;;;5085432;28;21057;-54
2023/10/19 03:41:20;;;;;;;3.43;2.77;;;;;;;;;;5086000;28;20934;-56
2023/10/19 03:43:48;;;;;;;2.40;1.40;;;;;;;;;;5087010;28;20542;-57
2023/10/19 03:46:22;;;;;;;2.10;1.37;;;;;;;;;;5085400;28;20444;-54
2023/10/19 03:48:51;;;;;;;1.80;1.30;;;;;;;;;;5084326;28;20541;-58
2023/10/19 03:51:18;;;;;;;2.17;1.30;;;;;;;;;;5085224;28;20872;-54
2023/10/19 03:53:53;;;;;;;2.30;1.33;;;;;;;;;;5084708;28;20849;-54
2023/10/19 03:56:21;;;;;;;1.70;1.20;;;;;;;;;;5086418;28;20963;-54
2023/10/19 03:58:50;;;;;;;2.10;1.40;;;;;;;;;;5087219;28;20468;-55
2023/10/19 04:01:19;;;;;;;2.30;1.37;;;;;;;;;;5077424;28;20460;-54
2023/10/19 04:03:46;;;;;;;1.90;1.50;;;;;;;;;;5087157;28;20452;-54
2023/10/19 04:06:15;;;;;;;2.40;1.70;;;;;;;;;;5085325;28;20451;-55
2023/10/19 04:08:45;;;;;;;2.07;1.40;;;;;;;;;;5085247;28;20467;-56
2023/10/19 04:11:21;;;;;;;3.70;1.80;;;;;;;;;;5085956;28;20450;-55
2023/10/19 04:13:52;;;;;;;2.73;2.43;;;;;;;;;;5084362;28;20451;-55
2023/10/19 04:16:20;;;;;;;3.10;1.90;;;;;;;;;;5086384;28;20447;-54
2023/10/19 04:18:48;;;;;;;2.27;1.67;;;;;;;;;;5092871;28;20510;-54
2023/10/19 04:21:16;;;;;;;2.87;1.63;;;;;;;;;;5089426;28;20478;-55
2023/10/19 04:23:43;;;;;;;2.80;2.07;;;;;;;;;;5085428;28;20449;-54
2023/10/19 04:26:18;;;;;;;4.50;2.50;;;;;;;;;;5084930;28;20455;-55
2023/10/19 04:28:49;;;;;;;3.87;3.40;;;;;;;;;;5089921;28;20467;-55
2023/10/19 04:31:17;;;;;;;3.60;2.80;;;;;;;;;;5088789;28;20747;-55
2023/10/19 04:33:47;;;;;;;9.77;7.50;;;;;;;;;;5087462;28;21006;-54
2023/10/19 04:36:15;;;;;;;2.53;2.13;;;;;;;;;;5091051;28;20496;-55
2023/10/19 04:38:45;;;;;;;6.50;2.43;;;;;;;;;;5093736;28;20554;-61
2023/10/19 04:41:12;;;;;;;2.60;1.90;;;;;;;;;;5091816;28;20447;-54
2023/10/19 04:43:43;;;;;;;4.57;3.00;;;;;;;;;;5091066;28;20496;-54
2023/10/19 04:46:12;;;;;;;4.77;3.37;;;;;;;;;;5089912;28;20451;-54
2023/10/19 04:48:41;;;;;;;4.00;3.50;;;;;;;;;;5090458;28;20857;-56
2023/10/19 04:51:09;;;;;;;4.17;2.23;;;;;;;;;;5089245;28;20475;-55
2023/10/19 04:53:37;;;;;;;5.37;2.63;;;;;;;;;;5091243;28;20471;-54
2023/10/19 04:56:06;;;;;;;4.27;3.33;;;;;;;;;;5091050;28;20479;-55
2023/10/19 04:58:34;;;;;;;4.20;3.03;;;;;;;;;;5091380;28;20467;-58
2023/10/19 05:01:03;;;;;;;2.67;2.37;;;;;;;;;;5090203;28;20520;-54
2023/10/19 05:03:31;;;;;;;3.67;1.97;;;;;;;;;;5086272;28;20447;-55
2023/10/19 05:05:58;;;;;;;2.67;2.30;;;;;;;;;;5086621;28;20475;-55
2023/10/19 05:08:27;;;;;;;4.03;2.03;;;;;;;;;;5080308;28;20822;-56
2023/10/19 05:10:55;;;;;;;4.70;3.27;;;;;;;;;;5076808;28;20560;-55
2023/10/19 05:13:26;;;;;;;5.60;4.13;;;;;;;;;;5090476;28;20443;-56
2023/10/19 05:15:54;;;;;;;3.00;2.37;;;;;;;;;;5087535;28;20795;-56
2023/10/19 05:18:22;;;;;;;2.87;1.80;;;;;;;;;;5080440;28;20810;-57
2023/10/19 05:20:50;;;;;;;2.90;2.50;;;;;;;;;;5084446;28;20516;-55
2023/10/19 05:23:19;;;;;;;3.27;2.40;;;;;;;;;;5080248;28;20528;-54
2023/10/19 05:25:47;;;;;;;4.50;3.03;;;;;;;;;;5079667;28;20498;-55
2023/10/19 05:28:14;;;;;;;3.57;2.53;;;;;;;;;;5083092;28;20528;-54
2023/10/19 05:30:43;;;;;;;4.10;2.43;;;;;;;;;;5086192;28;20478;-55
2023/10/19 05:33:11;;;;;;;6.07;2.00;;;;;;;;;;5089841;28;20492;-54
2023/10/19 05:35:40;;;;;;;3.10;2.70;;;;;;;;;;5080443;28;20444;-54
2023/10/19 05:38:07;;;;;;;3.23;2.00;;;;;;;;;;5144282;22;20723;-51
2023/10/19 05:40:35;;;;;;;2.87;1.73;;;;;;;;;;5092608;28;20517;-54
2023/10/19 05:43:03;;;;;;;2.60;2.13;;;;;;;;;;5092116;28;20828;-53
2023/10/19 05:45:32;;;;;;;3.07;2.37;;;;;;;;;;5092855;28;20448;-55
2023/10/19 05:48:03;;;;;;;4.00;2.70;;;;;;;;;;5091286;28;20475;-53
2023/10/19 05:50:30;;;;;;;3.60;2.57;;;;;;;;;;5083975;28;20487;-51
2023/10/19 05:52:58;;;;;;;3.70;2.80;;;;;;;;;;5087700;28;20474;-54
2023/10/19 05:55:25;;;;;;;3.90;3.10;;;;;;;;;;5086040;28;20531;-55
2023/10/19 05:57:53;;;;;;;5.17;3.10;;;;;;;;;;5086318;28;20535;-55
2023/10/19 06:00:20;;;;;;;4.73;2.40;;;;;;;;;;5090456;28;20467;-53
2023/10/19 06:02:48;;;;;;;4.17;3.50;;;;;;;;;;5086987;28;20906;-55
2023/10/19 06:05:18;;;;;;;4.90;2.17;;;;;;;;;;5088315;28;20942;-53
2023/10/19 06:07:45;;;;;;;3.60;1.90;;;;;;;;;;5085256;28;20821;-55
2023/10/19 06:10:15;;;;;;;4.90;2.30;;;;;;;;;;5084185;28;20484;-53
2023/10/19 06:12:43;;;;;;;3.87;2.60;;;;;;;;;;5084769;28;20448;-53
2023/10/19 06:15:11;;;;;;;5.20;2.00;;;;;;;;;;5079419;28;20513;-55
2023/10/19 06:17:39;;;;;;;3.10;2.30;;;;;;;;;;5082078;28;20500;-54
2023/10/19 06:20:08;;;;;;;4.90;2.47;;;;;;;;;;5081090;28;20460;-54
2023/10/19 06:22:37;;;;;;;3.63;2.57;;;;;;;;;;5084502;28;20475;-55
2023/10/19 06:25:06;;;;;;;4.73;2.30;;;;;;;;;;5088819;28;20500;-53
2023/10/19 06:27:33;;;;;;;4.17;3.70;;;;;;;;;;5092378;28;20447;-52
2023/10/19 06:30:00;;;;;;;4.30;3.10;;;;;;;;;;5086891;28;20508;-52
2023/10/19 06:32:28;;;;;;;3.00;2.37;;;;;;;;;;5089931;28;20895;-52
2023/10/19 06:34:55;;;;;;;5.20;3.10;;;;;;;;;;5085862;28;20477;-54
2023/10/19 06:37:22;;;;;;;4.70;2.27;;;;;;;;;;5088215;28;20518;-53
2023/10/19 06:39:51;;;;;;;4.77;1.83;;;;;;;;;;5089873;28;20526;-53
2023/10/19 06:42:18;;;;;;;3.60;2.97;;;;;;;;;;5091898;28;21003;-54
2023/10/19 06:44:46;;;;;;;7.97;6.70;;;;;;;;;;5091978;28;20508;-54
2023/10/19 06:47:13;;;;;;;7.03;6.20;;;;;;;;;;5092015;28;20500;-55
2023/10/19 06:49:41;;;;;;;10.73;6.63;;;;;;;;;;5091999;28;20465;-54
2023/10/19 06:52:11;;;;;;;5.60;3.77;;;;;;;;;;5091291;28;20436;-54
2023/10/19 06:54:39;;;;;;;5.90;5.33;;;;;;;;;;5090966;28;20512;-52
2023/10/19 06:57:08;;;;;;;6.87;6.10;;;;;;;;;;5086702;28;20444;-52
2023/10/19 06:59:36;;;;;;;4.50;3.53;;;;;;;;;;5086230;28;20550;-54
2023/10/19 07:02:04;;;;;;;6.17;3.93;;;;;;;;;;5082245;28;21993;-56
2023/10/19 07:04:31;;;;;;;5.27;4.00;;;;;;;;;;5084108;28;20845;-50
2023/10/19 07:06:58;;;;;;;5.10;4.40;;;;;;;;;;5088984;28;20995;-54
2023/10/19 07:09:28;;;;;;;7.07;4.23;;;;;;;;;;5092253;28;20456;-56
2023/10/19 07:11:56;;;;;;;5.80;3.50;;;;;;;;;;5091679;28;20471;-54
2023/10/19 07:14:25;;;;;;;12.97;5.13;;;;;;;;;;5091549;28;20522;-54
2023/10/19 07:16:52;;;;;;;5.13;3.43;;;;;;;;;;5091223;28;20436;-56
2023/10/19 07:19:20;;;;;;;5.77;4.30;;;;;;;;;;5092643;28;20525;-55
2023/10/19 07:21:53;;;;;;;7.10;6.40;;;;;;;;;;5090474;28;20438;-53
2023/10/19 07:24:23;;;;;;;5.13;3.90;;;;;;;;;;5085059;28;20482;-53
2023/10/19 07:27:04;;;;;;;8.07;4.00;;;;;;;;;;5084601;28;20449;-54
2023/10/19 07:29:35;;;;;;;4.97;3.80;;;;;;;;;;5082762;28;20849;-53
2023/10/19 07:32:04;;;;;;;4.67;4.27;;;;;;;;;;5084106;28;20860;-53
2023/10/19 07:34:33;;;;;;;5.43;4.20;;;;;;;;;;5085402;28;20458;-53
2023/10/19 07:37:00;;;;;;;4.73;3.77;;;;;;;;;;5090262;28;20538;-53
2023/10/19 07:39:30;;;;;;;4.13;2.93;;;;;;;;;;5090501;28;20467;-52
2023/10/19 07:41:57;;;;;;;3.40;2.50;;;;;;;;;;5089419;28;20440;-53
2023/10/19 07:44:25;;;;;;;5.83;2.83;;;;;;;;;;5090528;28;20497;-52
2023/10/19 07:46:54;;;;;;;4.50;2.77;;;;;;;;;;5090957;28;20451;-53
2023/10/19 07:49:21;;;;;;;7.43;2.57;;;;;;;;;;5090435;28;20455;-54
2023/10/19 07:51:49;;;;;;;5.00;3.57;;;;;;;;;;5085706;28;20986;-53
2023/10/19 07:54:17;;;;;;;6.67;4.20;;;;;;;;;;5090552;28;20846;-52
2023/10/19 07:56:44;;;;;;;5.63;4.73;;;;;;;;;;5087064;28;20443;-52
2023/10/19 07:59:12;;;;;;;5.60;3.80;;;;;;;;;;5089304;28;20541;-55
2023/10/19 08:01:39;;;;;;;7.90;3.80;;;;;;;;;;5071880;28;20436;-52
2023/10/19 08:04:08;;;;;;;8.07;5.57;;;;;;;;;;5090181;28;20536;-52
2023/10/19 08:06:35;;;;;;;6.23;4.80;;;;;;;;;;5083727;28;20494;-55
2023/10/19 08:09:04;;;;;;;6.90;4.57;;;;;;;;;;5070169;28;20552;-53
2023/10/19 08:11:33;;;;;;;4.63;3.40;;;;;;;;;;5070176;28;20902;-54
2023/10/19 08:14:01;;;;;;;6.30;3.43;;;;;;;;;;5073343;28;20858;-55
2023/10/19 08:16:28;;;;;;;10.13;4.13;;;;;;;;;;5090354;28;20439;-53
2023/10/19 08:18:55;;;;;;;4.17;3.40;;;;;;;;;;5085055;28;20552;-55
2023/10/19 08:21:25;;;;;;;5.87;4.33;;;;;;;;;;5085891;28;20489;-55
2023/10/19 08:23:55;;;;;;;4.30;3.90;;;;;;;;;;5090476;28;20443;-55
2023/10/19 08:26:23;;;;;;;5.00;3.87;;;;;;;;;;5081156;28;20435;-56
2023/10/19 08:28:51;;;;;;;5.80;4.53;;;;;;;;;;5073623;28;20843;-54
2023/10/19 08:31:18;;;;;;;6.60;4.67;;;;;;;;;;5070195;28;20878;-56
2023/10/19 08:33:47;;;;;;;5.00;4.47;;;;;;;;;;5087138;28;20456;-53
2023/10/19 08:36:19;;;;;;;5.30;4.63;;;;;;;;;;5090348;28;20871;-53
2023/10/19 08:38:48;;;;;;;5.73;3.73;;;;;;;;;;5087554;28;20475;-54
2023/10/19 08:41:15;;;;;;;4.27;3.60;;;;;;;;;;5080729;28;20545;-53
2023/10/19 08:43:43;;;;;;;6.33;4.33;;;;;;;;;;5082933;28;20435;-53
2023/10/19 08:46:12;;;;;;;5.03;4.03;;;;;;;;;;5090190;28;20435;-55
2023/10/19 08:48:39;;;;;;;9.37;4.20;;;;;;;;;;5093807;28;20457;-53
2023/10/19 08:51:11;;;;;;;4.40;3.40;;;;;;;;;;5094418;28;20555;-54
2023/10/19 08:53:40;;;;;;;5.27;2.87;;;;;;;;;;5084904;28;20525;-55
2023/10/19 08:56:09;;;;;;;3.97;2.63;;;;;;;;;;5084645;28;20524;-52
2023/10/19 08:58:36;;;;;;;8.33;2.90;;;;;;;;;;5090129;28;20542;-55
2023/10/19 09:01:09;;;;;;;3.50;2.60;;;;;;;;;;5088510;28;20495;-54
2023/10/19 09:03:38;;;;;;;6.70;2.73;;;;;;;;;;5088092;28;20514;-53
2023/10/19 09:06:06;;;;;;;4.27;3.57;;;;;;;;;;5086946;28;20436;-53
2023/10/19 09:08:39;;;;;;;6.80;2.97;;;;;;;;;;5084964;28;20487;-53
2023/10/19 09:11:09;;;;;;;6.13;3.07;;;;;;;;;;5089473;28;20502;-56
2023/10/19 09:13:46;;;;;;;6.03;4.10;;;;;;;;;;5084238;28;20542;-53
2023/10/19 09:16:14;;;;;;;4.87;3.20;;;;;;;;;;5083724;28;20457;-53
2023/10/19 09:18:41;;;;;;;5.13;3.50;;;;;;;;;;5091065;28;20459;-53
2023/10/19 09:21:11;;;;;;;5.37;3.90;;;;;;;;;;5092171;28;20960;-54
2023/10/19 09:23:39;;;;;;;4.90;4.40;;;;;;;;;;5093879;28;20450;-53
2023/10/19 09:26:07;;;;;;;5.43;4.00;;;;;;;;;;5093384;28;20965;-54
2023/10/19 09:28:37;;;;;;;5.20;4.80;;;;;;;;;;5088453;28;20463;-54
2023/10/19 09:31:05;;;;;;;5.60;4.10;;;;;;;;;;5092909;28;20503;-53
2023/10/19 09:33:33;;;;;;;5.80;4.90;;;;;;;;;;5093260;28;20439;-53
2023/10/19 09:36:04;;;;;;;4.43;3.27;;;;;;;;;;5093398;28;20469;-52
2023/10/19 09:38:32;;;;;;;5.80;3.10;;;;;;;;;;5093526;28;20950;-54
2023/10/19 09:41:00;;;;;;;4.60;3.00;;;;;;;;;;5093106;28;20435;-54
2023/10/19 09:43:34;;;;;;;5.07;3.60;;;;;;;;;;5092248;28;20519;-56
2023/10/19 09:46:06;;;;;;;4.10;2.70;;;;;;;;;;5092043;28;20475;-56
2023/10/19 09:48:35;;;;;;;5.10;3.07;;;;;;;;;;5092197;28;20547;-53
2023/10/19 09:51:03;;;;;;;2.93;2.47;;;;;;;;;;5092294;28;21000;-57
2023/10/19 09:53:32;;;;;;;4.23;3.33;;;;;;;;;;5092122;28;20447;-54
2023/10/19 09:56:00;;;;;;;4.00;3.53;;;;;;;;;;5092769;28;20822;-54
2023/10/19 09:58:30;;;;;;;4.57;2.40;;;;;;;;;;5092471;28;20551;-52
2023/10/19 10:00:58;;;;;;;4.20;3.13;;;;;;;;;;5093070;28;20530;-55
2023/10/19 10:03:45;;;;;;;2.63;2.33;;;;;;;;;;5092371;28;21207;-54
2023/10/19 10:06:14;;;;;;;3.30;2.60;;;;;;;;;;5092030;28;20525;-53
2023/10/19 10:08:42;;;;;;;3.70;3.00;;;;;;;;;;5087012;28;20477;-53
2023/10/19 10:11:23;;;;;;;6.73;3.10;;;;;;;;;;5082726;28;20952;-52
2023/10/19 10:13:54;;;;;;;3.43;2.47;;;;;;;;;;5084437;28;20448;-53
2023/10/19 10:16:23;;;;;;;3.90;2.80;;;;;;;;;;5092045;28;20440;-52
2023/10/19 10:18:52;;;;;;;3.93;2.97;;;;;;;;;;5092219;28;20475;-54
2023/10/19 10:21:21;;;;;;;8.73;5.10;;;;;;;;;;5092000;28;20435;-53
2023/10/19 10:23:49;;;;;;;4.50;3.07;;;;;;;;;;5091837;28;20444;-52
2023/10/19 10:26:17;;;;;;;5.70;2.80;;;;;;;;;;5091409;28;20447;-55
2023/10/19 10:28:48;;;;;;;4.37;2.80;;;;;;;;;;5091173;28;20584;-55
2023/10/19 10:31:16;;;;;;;4.93;3.20;;;;;;;;;;5088608;28;20489;-53
2023/10/19 10:33:46;;;;;;;5.57;3.40;;;;;;;;;;5087256;28;20444;-53
2023/10/19 10:36:16;;;;;;;4.37;3.07;;;;;;;;;;5081815;28;20876;-52
2023/10/19 10:38:44;;;;;;;4.40;2.50;;;;;;;;;;5084943;28;20480;-53
2023/10/19 10:41:11;;;;;;;4.00;2.40;;;;;;;;;;5082083;28;20532;-53
2023/10/19 10:43:52;;;;;;;3.20;2.20;;;;;;;;;;5082177;28;20880;-52
2023/10/19 10:46:21;;;;;;;8.33;3.07;;;;;;;;;;5084918;28;20443;-52
2023/10/19 10:48:48;;;;;;;8.00;3.00;;;;;;;;;;5085238;28;20985;-53
2023/10/19 10:51:21;;;;;;;6.43;2.80;;;;;;;;;;5081802;28;20853;-54
2023/10/19 10:53:49;;;;;;;2.70;2.17;;;;;;;;;;5084705;28;20799;-53
2023/10/19 10:56:17;;;;;;;3.70;2.27;;;;;;;;;;5084580;28;20448;-55
2023/10/19 10:58:44;;;;;;;4.30;2.50;;;;;;;;;;5082964;28;20468;-53
2023/10/19 11:01:13;;;;;;;3.63;2.30;;;;;;;;;;5078762;28;20445;-54
2023/10/19 11:03:40;;;;;;;4.87;2.40;;;;;;;;;;5071355;28;20449;-53
2023/10/19 11:06:08;;;;;;;3.53;2.50;;;;;;;;;;5079780;28;20452;-53
2023/10/19 11:08:38;;;;;;;3.50;2.13;;;;;;;;;;5088707;28;20555;-54
2023/10/19 11:11:06;;;;;;;5.83;2.27;;;;;;;;;;5085689;28;20447;-53
2023/10/19 11:13:36;;;;;;;5.43;2.07;;;;;;;;;;5082575;28;20474;-53
2023/10/19 11:16:05;;;;;;;3.50;1.70;;;;;;;;;;5087978;28;20538;-53
2023/10/19 11:18:35;;;;;;;3.53;1.70;;;;;;;;;;5091599;28;20464;-53
2023/10/19 11:21:04;;;;;;;8.00;1.57;;;;;;;;;;5085222;28;20455;-55
2023/10/19 11:23:52;;;;;;;3.60;2.40;;;;;;;;;;5088039;28;20469;-53
2023/10/19 11:26:22;;;;;;;5.43;2.00;;;;;;;;;;5083943;28;20539;-55
2023/10/19 11:28:58;;;;;;;6.53;2.37;;;;;;;;;;5084964;28;20487;-56
2023/10/19 11:31:26;;;;;;;7.07;2.33;;;;;;;;;;5086970;28;21000;-55
2023/10/19 11:33:55;;;;;;;7.40;2.20;;;;;;;;;;5085147;28;20479;-56
2023/10/19 11:36:24;;;;;;;2.97;1.70;;;;;;;;;;5091165;28;20447;-53
2023/10/19 11:38:53;;;;;;;3.40;2.07;;;;;;;;;;5120855;22;20483;-92
2023/10/19 11:41:23;;;;;;;2.60;1.53;;;;;;;;;;5123686;27;20852;-92
2023/10/19 11:43:50;;;;;;;3.80;2.07;;;;;;;;;;5126889;27;20453;-92
2023/10/19 11:46:18;;;;;;;2.13;1.00;;;;;;;;;;5122733;27;20487;-92
2023/10/19 11:48:47;;;;;;;4.23;1.17;;;;;;;;;;5127392;27;20520;-92
2023/10/19 11:51:20;;;;;;;3.40;2.70;;;;;;;;;;5124559;27;20510;-92
2023/10/19 11:53:47;;;;;;;10.33;1.90;;;;;;;;;;5125965;27;20924;-91
2023/10/19 11:56:16;;;;;;;2.60;1.40;;;;;;;;;;5129122;27;20450;-92
2023/10/19 11:58:46;;;;;;;3.67;1.47;;;;;;;;;;5127390;27;20493;-92
2023/10/19 12:01:16;;;;;;;2.80;2.00;;;;;;;;;;5124233;27;20971;-92
2023/10/19 12:03:45;;;;;;;2.97;1.20;;;;;;;;;;5123973;27;20538;-91
2023/10/19 12:06:18;;;;;;;3.10;1.47;;;;;;;;;;5129274;27;20447;-92
2023/10/19 12:08:46;;;;;;;5.73;1.70;;;;;;;;;;5129777;27;20552;-92
2023/10/19 12:11:16;;;;;;;3.70;1.40;;;;;;;;;;5130425;27;20414;-92
2023/10/19 12:13:45;;;;;;;5.00;1.53;;;;;;;;;;5123851;27;20512;-92
2023/10/19 12:16:15;;;;;;;3.67;2.10;;;;;;;;;;5111383;27;20473;-92
2023/10/19 12:18:43;;;;;;;3.73;1.53;;;;;;;;;;5122995;27;20471;-92
2023/10/19 12:21:12;;;;;;;3.30;1.50;;;;;;;;;;5130311;28;20442;-92
2023/10/19 12:23:40;;;;;;;3.80;1.20;;;;;;;;;;5120767;28;20518;-93
2023/10/19 12:26:11;;;;;;;4.10;1.10;;;;;;;;;;5129158;28;20514;-92
2023/10/19 12:28:39;;;;;;;5.50;1.37;;;;;;;;;;5126128;28;20470;-92
2023/10/19 12:31:08;;;;;;;2.77;0.80;;;;;;;;;;5125403;28;20537;-92
2023/10/19 12:33:36;;;;;;;1.70;1.00;;;;;;;;;;5129483;28;20477;-92
2023/10/19 12:36:22;;;;;;;3.10;1.07;;;;;;;;;;5124570;28;20441;-87
2023/10/19 12:38:50;;;;;;;3.67;1.83;;;;;;;;;;5122747;28;20474;-86
2023/10/19 12:41:18;;;;;;;4.20;1.50;;;;;;;;;;5116165;28;20442;-86
2023/10/19 12:43:46;;;;;;;2.87;1.07;;;;;;;;;;5114119;28;20812;-87
2023/10/19 12:46:15;;;;;;;2.63;0.70;;;;;;;;;;5125079;28;20489;-91
2023/10/19 12:48:43;;;;;;;2.10;0.93;;;;;;;;;;5123538;28;20537;-91
2023/10/19 12:51:11;;;;;;;3.77;1.07;;;;;;;;;;5136717;28;20430;-92
2023/10/19 12:53:39;;;;;;;3.63;1.00;;;;;;;;;;5153157;27;20618;-92
2023/10/19 12:56:07;;;;;;;1.90;0.70;;;;;;;;;;5149197;27;20442;-93
2023/10/19 12:58:35;;;;;;;1.50;0.80;;;;;;;;;;5139883;27;20466;-93
2023/10/19 13:01:05;;;;;;;1.40;0.50;;;;;;;;;;5144769;27;20445;-92
2023/10/19 13:03:36;;;;;;;2.57;0.80;;;;;;;;;;5135234;27;20444;-94
2023/10/19 13:06:07;;;;;;;2.17;0.63;;;;;;;;;;5150688;27;20442;-92
2023/10/19 13:08:34;;;;;;;2.13;0.80;;;;;;;;;;5117198;27;20457;-89
2023/10/19 13:11:02;;;;;;;2.53;0.93;;;;;;;;;;5126430;27;20430;-89
2023/10/19 13:13:29;;;;;;;3.10;0.70;;;;;;;;;;5124973;27;20581;-89
2023/10/19 13:15:56;;;;;;;1.50;0.60;;;;;;;;;;5122692;27;20499;-89
2023/10/19 13:18:27;;;;;;;2.73;0.90;;;;;;;;;;5127290;27;20653;-89
2023/10/19 13:20:56;;;;;;;4.63;1.20;;;;;;;;;;5127921;27;20522;-89
2023/10/19 13:23:24;;;;;;;3.20;0.70;;;;;;;;;;5123142;27;20818;-88
2023/10/19 13:25:53;;;;;;;3.50;0.70;;;;;;;;;;5124991;27;20480;-89
2023/10/19 13:28:21;;;;;;;1.60;0.67;;;;;;;;;;5118008;27;20466;-89
2023/10/19 13:30:48;;;;;;;1.83;0.70;;;;;;;;;;5123086;27;20442;-89
2023/10/19 13:33:16;;;;;;;3.00;1.33;;;;;;;;;;5119956;27;20473;-89
2023/10/19 13:35:44;;;;;;;4.10;1.00;;;;;;;;;;5111840;27;20443;-88
2023/10/19 13:38:14;;;;;;;2.50;1.50;;;;;;;;;;5127144;27;20462;-89
2023/10/19 13:40:42;;;;;;;4.27;0.90;;;;;;;;;;5118796;27;20486;-88
2023/10/19 13:43:13;;;;;;;1.70;0.70;;;;;;;;;;5126709;27;20441;-89
2023/10/19 13:45:42;;;;;;;1.80;1.00;;;;;;;;;;5124459;27;20458;-89
2023/10/19 13:48:10;;;;;;;1.67;0.60;;;;;;;;;;5118853;27;20543;-89
2023/10/19 13:50:42;;;;;;;1.60;0.80;;;;;;;;;;5123970;27;20453;-89
2023/10/19 13:53:10;;;;;;;3.23;0.77;;;;;;;;;;5113699;27;20557;-89
2023/10/19 13:55:38;;;;;;;2.93;0.97;;;;;;;;;;5116121;27;20446;-89
2023/10/19 13:58:06;;;;;;;1.80;0.80;;;;;;;;;;5111970;27;20524;-88
2023/10/19 14:00:40;;;;;;;1.93;0.87;;;;;;;;;;5114347;27;20513;-88
2023/10/19 14:03:08;;;;;;;1.60;0.70;;;;;;;;;;5127914;27;20453;-89
2023/10/19 14:05:39;;;;;;;2.27;0.50;;;;;;;;;;5114222;28;20451;-88
2023/10/19 14:08:07;;;;;;;2.47;0.80;;;;;;;;;;5124974;27;20495;-89
2023/10/19 14:10:34;;;;;;;1.80;1.00;;;;;;;;;;5123671;27;20437;-89
2023/10/19 14:13:05;;;;;;;2.17;0.97;;;;;;;;;;5116534;27;20475;-89
2023/10/19 14:15:33;;;;;;;1.83;0.80;;;;;;;;;;5119754;27;20456;-89
2023/10/19 14:18:01;;;;;;;2.53;1.03;;;;;;;;;;5130337;27;20561;-89
2023/10/19 14:20:30;;;;;;;2.90;1.17;;;;;;;;;;5130619;27;20466;-89
2023/10/19 14:22:58;;;;;;;2.80;1.50;;;;;;;;;;5121827;27;20881;-89
2023/10/19 14:25:26;;;;;;;3.03;0.90;;;;;;;;;;5120637;27;21012;-89
2023/10/19 14:27:55;;;;;;;1.43;0.50;;;;;;;;;;5124316;27;20450;-89
2023/10/19 14:30:25;;;;;;;5.30;1.53;;;;;;;;;;5119070;27;20450;-88
2023/10/19 14:32:52;;;;;;;2.70;0.93;;;;;;;;;;5122600;27;20995;-89
2023/10/19 14:35:21;;;;;;;1.70;1.07;;;;;;;;;;5129413;27;20443;-89
2023/10/19 14:37:49;;;;;;;2.60;2.40;;;;;;;;;;5131303;27;20801;-88
2023/10/19 14:40:19;;;;;;;1.57;1.20;;;;;;;;;;5119481;27;20447;-89
2023/10/19 14:42:47;;;;;;;3.00;1.87;;;;;;;;;;5119284;27;20436;-89
2023/10/19 14:45:16;;;;;;;2.40;2.20;;;;;;;;;;5131484;27;20547;-89
2023/10/19 14:47:48;;;;;;;2.47;1.13;;;;;;;;;;5118749;27;20488;-89
2023/10/19 14:50:17;;;;;;;2.40;1.67;;;;;;;;;;5126899;27;20451;-89
2023/10/19 14:52:45;;;;;;;2.40;2.03;;;;;;;;;;5128404;27;20873;-88
2023/10/19 14:55:14;;;;;;;1.57;1.00;;;;;;;;;;5119442;27;20449;-88
2023/10/19 14:57:42;;;;;;;1.70;0.90;;;;;;;;;;5113797;27;20895;-88